Time;durP1;ratioP1;P1;durP2;ratioP2;P2;SDS_P1;SDS_P2;PMS_P1;PMS_P2;Temp;Humidity;BMP_temperature;BMP_pressure;BME280_temperature;BME280_humidity;BME280_pressure;Samples;Min_cycle;Max_cycle;Signal;HPM_P1;HPM_P2
2022/05/04 00:00:55;;;;;;;15.43;8.27;;;;;;;;;;2083250;28;20326;-56
2022/05/04 00:01:55;;;;;;;14.80;8.52;;;;;;;;;;2082644;28;20195;-56
2022/05/04 00:02:56;;;;;;;13.17;8.33;;;;;;;;;;2082613;28;20168;-55
2022/05/04 00:03:56;;;;;;;12.88;8.20;;;;;;;;;;2081853;28;20196;-53
2022/05/04 00:04:56;;;;;;;13.00;8.10;;;;;;;;;;2081923;28;20218;-54
2022/05/04 00:05:56;;;;;;;15.65;7.93;;;;;;;;;;2082685;28;20263;-56
2022/05/04 00:06:57;;;;;;;18.98;7.30;;;;;;;;;;2082396;28;20164;-55
2022/05/04 00:07:57;;;;;;;15.57;8.00;;;;;;;;;;2082701;28;20195;-51
2022/05/04 00:08:57;;;;;;;7.85;6.97;;;;;;;;;;2082053;28;20708;-54
2022/05/04 00:09:58;;;;;;;15.73;8.03;;;;;;;;;;2082355;28;20639;-55
2022/05/04 00:10:58;;;;;;;14.80;8.45;;;;;;;;;;2081965;28;20523;-53
2022/05/04 00:11:58;;;;;;;19.23;8.77;;;;;;;;;;2081753;28;20525;-52
2022/05/04 00:12:59;;;;;;;12.23;7.70;;;;;;;;;;2081838;28;20658;-50
2022/05/04 00:13:59;;;;;;;15.65;7.97;;;;;;;;;;2080426;28;20283;-54
2022/05/04 00:15:00;;;;;;;12.65;7.43;;;;;;;;;;2081522;28;20172;-54
2022/05/04 00:16:01;;;;;;;12.93;7.90;;;;;;;;;;2081828;28;20537;-56
2022/05/04 00:17:01;;;;;;;10.35;8.18;;;;;;;;;;2082147;28;20168;-54
2022/05/04 00:18:01;;;;;;;13.52;8.43;;;;;;;;;;2081625;28;20684;-54
2022/05/04 00:19:01;;;;;;;11.65;7.72;;;;;;;;;;2081718;28;20169;-52
2022/05/04 00:20:02;;;;;;;14.95;8.07;;;;;;;;;;2082507;28;20176;-52
2022/05/04 00:21:02;;;;;;;13.70;8.27;;;;;;;;;;2082080;28;20204;-56
2022/05/04 00:22:03;;;;;;;14.75;7.88;;;;;;;;;;2081971;28;20607;-53
2022/05/04 00:23:03;;;;;;;12.80;8.27;;;;;;;;;;2081854;28;20641;-52
2022/05/04 00:24:03;;;;;;;15.38;8.32;;;;;;;;;;2081120;28;20264;-54
2022/05/04 00:25:04;;;;;;;15.37;8.73;;;;;;;;;;2081266;28;20187;-52
2022/05/04 00:26:04;;;;;;;12.02;8.32;;;;;;;;;;2081859;28;20164;-51
2022/05/04 00:27:04;;;;;;;15.98;8.77;;;;;;;;;;2082099;28;20172;-53
2022/05/04 00:28:05;;;;;;;14.73;8.60;;;;;;;;;;2086855;28;20737;-58
2022/05/04 00:29:05;;;;;;;17.05;8.40;;;;;;;;;;2089888;28;20167;-53
2022/05/04 00:30:05;;;;;;;15.25;8.18;;;;;;;;;;2084935;28;20627;-52
2022/05/04 00:31:06;;;;;;;14.20;9.55;;;;;;;;;;2081718;28;20215;-54
2022/05/04 00:32:06;;;;;;;12.23;8.50;;;;;;;;;;2082018;28;20179;-53
2022/05/04 00:33:06;;;;;;;16.50;8.70;;;;;;;;;;2081784;28;20211;-56
2022/05/04 00:34:07;;;;;;;12.13;8.17;;;;;;;;;;2081539;28;20215;-55
2022/05/04 00:35:07;;;;;;;15.47;9.30;;;;;;;;;;2082212;28;20179;-56
2022/05/04 00:36:08;;;;;;;12.67;8.33;;;;;;;;;;2082080;28;20191;-53
2022/05/04 00:37:08;;;;;;;13.13;8.32;;;;;;;;;;2082096;28;20184;-52
2022/05/04 00:38:08;;;;;;;20.10;9.20;;;;;;;;;;2081936;28;20283;-51
2022/05/04 00:39:08;;;;;;;19.52;8.95;;;;;;;;;;2081970;28;20184;-53
2022/05/04 00:40:09;;;;;;;14.33;8.50;;;;;;;;;;2081951;28;20210;-55
2022/05/04 00:41:09;;;;;;;17.38;9.63;;;;;;;;;;2082211;28;20249;-56
2022/05/04 00:42:12;;;;;;;15.40;9.20;;;;;;;;;;2082092;28;20173;-54
2022/05/04 00:43:24;;;;;;;18.55;8.63;;;;;;;;;;2080773;28;20183;-53
2022/05/04 00:44:25;;;;;;;13.03;8.57;;;;;;;;;;2081304;28;20255;-51
2022/05/04 00:45:25;;;;;;;14.67;8.40;;;;;;;;;;2081764;28;20179;-49
2022/05/04 00:46:25;;;;;;;15.90;8.43;;;;;;;;;;2081904;28;20176;-54
2022/05/04 00:47:25;;;;;;;13.70;8.85;;;;;;;;;;2082200;28;20546;-56
2022/05/04 00:48:26;;;;;;;17.03;8.87;;;;;;;;;;2082042;28;20172;-54
2022/05/04 00:49:26;;;;;;;15.00;7.93;;;;;;;;;;2081329;28;20192;-56
2022/05/04 00:50:27;;;;;;;17.02;8.93;;;;;;;;;;2081137;28;20183;-54
2022/05/04 00:51:27;;;;;;;13.73;9.05;;;;;;;;;;2081029;28;20164;-52
2022/05/04 00:52:27;;;;;;;12.03;8.07;;;;;;;;;;2081050;28;20176;-53
2022/05/04 00:53:28;;;;;;;13.30;8.37;;;;;;;;;;2072672;28;20567;-51
2022/05/04 00:54:28;;;;;;;15.27;8.47;;;;;;;;;;2080962;28;20188;-53
2022/05/04 00:55:28;;;;;;;14.00;8.80;;;;;;;;;;2081856;28;20325;-55
2022/05/04 00:56:29;;;;;;;12.53;8.83;;;;;;;;;;2081916;28;20215;-57
2022/05/04 00:58:55;;;;;;;13.23;8.67;;;;;;;;;;2081189;28;20168;-51
2022/05/04 00:59:55;;;;;;;17.27;9.23;;;;;;;;;;2081784;28;20156;-54
2022/05/04 01:00:57;;;;;;;19.50;9.00;;;;;;;;;;2081385;28;20871;-54
2022/05/04 01:01:57;;;;;;;17.03;8.63;;;;;;;;;;2081637;28;20256;-53
2022/05/04 01:02:57;;;;;;;17.13;8.17;;;;;;;;;;2081590;28;20368;-53
2022/05/04 01:03:58;;;;;;;17.60;9.00;;;;;;;;;;2081233;28;20196;-53
2022/05/04 01:04:59;;;;;;;15.27;7.93;;;;;;;;;;2080757;28;20219;-55
2022/05/04 01:05:59;;;;;;;16.90;9.57;;;;;;;;;;2080980;28;20215;-54
2022/05/04 01:07:00;;;;;;;13.40;7.97;;;;;;;;;;2082033;28;20176;-53
2022/05/04 01:08:00;;;;;;;14.95;8.20;;;;;;;;;;2081565;28;20310;-57
2022/05/04 01:09:00;;;;;;;15.10;8.27;;;;;;;;;;2081738;28;20208;-54
2022/05/04 01:10:00;;;;;;;14.40;8.80;;;;;;;;;;2081530;28;20527;-53
2022/05/04 01:11:01;;;;;;;11.57;8.10;;;;;;;;;;2081299;28;20717;-56
2022/05/04 01:12:01;;;;;;;14.83;8.40;;;;;;;;;;2081443;28;20176;-50
2022/05/04 01:13:01;;;;;;;13.20;8.33;;;;;;;;;;2081787;28;20203;-55
2022/05/04 01:14:02;;;;;;;12.97;8.57;;;;;;;;;;2080988;28;20196;-55
2022/05/04 01:15:03;;;;;;;11.02;7.93;;;;;;;;;;2081824;28;20573;-52
2022/05/04 01:16:03;;;;;;;15.63;8.53;;;;;;;;;;2082134;28;20183;-55
2022/05/04 01:17:04;;;;;;;15.65;8.00;;;;;;;;;;2082100;28;20183;-58
2022/05/04 01:18:04;;;;;;;13.53;8.07;;;;;;;;;;2082490;28;20167;-56
2022/05/04 01:19:06;;;;;;;15.30;8.73;;;;;;;;;;2082364;28;20196;-57
2022/05/04 01:20:08;;;;;;;13.52;8.93;;;;;;;;;;2082544;28;20180;-57
2022/05/04 01:21:08;;;;;;;20.87;8.13;;;;;;;;;;2082325;28;20200;-59
2022/05/04 01:22:09;;;;;;;14.02;8.38;;;;;;;;;;2082128;28;20188;-58
2022/05/04 01:23:10;;;;;;;16.53;9.00;;;;;;;;;;2082372;28;20175;-56
2022/05/04 01:24:10;;;;;;;14.33;8.73;;;;;;;;;;2081628;28;20200;-58
2022/05/04 01:25:11;;;;;;;17.53;8.60;;;;;;;;;;2082325;28;20175;-53
2022/05/04 01:26:12;;;;;;;12.63;8.00;;;;;;;;;;2081664;28;20253;-54
2022/05/04 01:27:12;;;;;;;15.02;8.70;;;;;;;;;;2081344;28;20186;-52
2022/05/04 01:28:12;;;;;;;15.07;8.53;;;;;;;;;;2088645;28;20230;-53
2022/05/04 01:29:14;;;;;;;10.10;8.37;;;;;;;;;;2085605;28;20187;-55
2022/05/04 01:30:14;;;;;;;17.30;8.50;;;;;;;;;;2082483;28;20645;-51
2022/05/04 01:31:14;;;;;;;12.70;8.73;;;;;;;;;;2082540;28;20180;-55
2022/05/04 01:32:15;;;;;;;18.77;9.07;;;;;;;;;;2073563;28;20270;-58
2022/05/04 01:33:15;;;;;;;16.13;8.23;;;;;;;;;;2081202;28;20218;-54
2022/05/04 01:34:20;;;;;;;11.93;8.80;;;;;;;;;;2081060;28;20184;-53
2022/05/04 01:35:20;;;;;;;14.90;8.93;;;;;;;;;;2080743;28;20665;-55
2022/05/04 01:36:21;;;;;;;19.07;9.73;;;;;;;;;;2082485;28;20211;-56
2022/05/04 01:37:21;;;;;;;17.47;9.93;;;;;;;;;;2081525;28;20256;-57
2022/05/04 01:38:21;;;;;;;16.53;9.67;;;;;;;;;;2081923;28;20180;-56
2022/05/04 01:39:21;;;;;;;18.20;9.73;;;;;;;;;;2080805;28;20188;-56
2022/05/04 01:40:22;;;;;;;13.67;8.27;;;;;;;;;;2080921;28;20204;-53
2022/05/04 01:42:41;;;;;;;13.57;8.27;;;;;;;;;;2081662;28;20148;-53
2022/05/04 01:43:41;;;;;;;17.33;8.87;;;;;;;;;;2083153;28;20216;-54
2022/05/04 01:44:42;;;;;;;16.43;8.57;;;;;;;;;;2082776;28;20172;-55
2022/05/04 01:45:43;;;;;;;16.97;8.47;;;;;;;;;;2082750;28;20174;-48
2022/05/04 01:46:43;;;;;;;16.70;9.03;;;;;;;;;;2083335;28;20184;-53
2022/05/04 01:47:49;;;;;;;11.77;8.43;;;;;;;;;;2082750;28;20165;-52
2022/05/04 01:48:49;;;;;;;16.83;9.20;;;;;;;;;;2083016;28;20669;-57
2022/05/04 01:49:50;;;;;;;11.13;7.60;;;;;;;;;;2082746;28;20183;-55
2022/05/04 01:50:50;;;;;;;16.63;9.17;;;;;;;;;;2083041;28;20180;-53
2022/05/04 01:51:50;;;;;;;13.50;8.43;;;;;;;;;;2082871;28;20168;-54
2022/05/04 01:52:51;;;;;;;15.50;8.57;;;;;;;;;;2083253;28;20164;-51
2022/05/04 01:53:51;;;;;;;18.53;9.07;;;;;;;;;;2082692;28;20221;-50
2022/05/04 01:54:51;;;;;;;13.52;8.57;;;;;;;;;;2081907;28;20171;-50
2022/05/04 01:55:52;;;;;;;16.67;9.07;;;;;;;;;;2082443;28;20208;-50
2022/05/04 01:56:52;;;;;;;15.75;9.30;;;;;;;;;;2090776;28;20171;-51
2022/05/04 01:57:52;;;;;;;12.30;8.47;;;;;;;;;;2083175;28;20191;-57
2022/05/04 01:58:52;;;;;;;18.40;9.17;;;;;;;;;;2083174;28;20207;-53
2022/05/04 01:59:53;;;;;;;19.73;8.88;;;;;;;;;;2082731;28;20199;-50
2022/05/04 02:00:53;;;;;;;18.90;9.20;;;;;;;;;;2082993;28;20260;-52
2022/05/04 02:01:53;;;;;;;10.20;8.10;;;;;;;;;;2082216;28;20211;-53
2022/05/04 02:02:54;;;;;;;17.87;9.50;;;;;;;;;;2082420;28;20179;-51
2022/05/04 02:03:54;;;;;;;14.23;8.73;;;;;;;;;;2082657;28;20354;-55
2022/05/04 02:04:55;;;;;;;13.95;8.45;;;;;;;;;;2082625;28;20238;-57
2022/05/04 02:05:55;;;;;;;22.27;9.07;;;;;;;;;;2082421;28;20173;-56
2022/05/04 02:06:56;;;;;;;17.80;8.80;;;;;;;;;;2082486;28;20176;-54
2022/05/04 02:07:56;;;;;;;15.47;9.27;;;;;;;;;;2083053;28;20180;-50
2022/05/04 02:08:57;;;;;;;15.90;9.10;;;;;;;;;;2083020;28;20216;-53
2022/05/04 02:09:57;;;;;;;16.63;8.33;;;;;;;;;;2082637;28;20267;-55
2022/05/04 02:10:57;;;;;;;14.10;8.73;;;;;;;;;;2082962;28;20653;-55
2022/05/04 02:11:58;;;;;;;19.55;9.15;;;;;;;;;;2082926;28;20184;-51
2022/05/04 02:12:58;;;;;;;19.52;8.77;;;;;;;;;;2083086;28;20184;-54
2022/05/04 02:13:59;;;;;;;13.48;8.13;;;;;;;;;;2082542;28;20200;-56
2022/05/04 02:14:59;;;;;;;13.93;7.82;;;;;;;;;;2082129;28;20207;-54
2022/05/04 02:15:59;;;;;;;16.57;8.87;;;;;;;;;;2082225;28;20172;-55
2022/05/04 02:17:00;;;;;;;15.50;8.30;;;;;;;;;;2082911;28;20222;-53
2022/05/04 02:18:00;;;;;;;16.07;8.53;;;;;;;;;;2082634;28;20551;-54
2022/05/04 02:19:00;;;;;;;17.50;8.05;;;;;;;;;;2082747;28;20169;-51
2022/05/04 02:20:01;;;;;;;19.95;9.55;;;;;;;;;;2082770;28;20559;-53
2022/05/04 02:21:01;;;;;;;12.63;8.35;;;;;;;;;;2082256;28;20172;-56
2022/05/04 02:22:01;;;;;;;12.50;8.37;;;;;;;;;;2082600;28;20199;-54
2022/05/04 02:23:02;;;;;;;12.80;8.60;;;;;;;;;;2082876;28;20230;-56
2022/05/04 02:24:02;;;;;;;15.47;8.90;;;;;;;;;;2082431;28;20184;-53
2022/05/04 02:25:03;;;;;;;14.47;8.90;;;;;;;;;;2082770;28;20199;-53
2022/05/04 02:26:03;;;;;;;12.27;8.43;;;;;;;;;;2082984;28;20164;-53
2022/05/04 02:27:03;;;;;;;16.50;9.50;;;;;;;;;;2082270;28;20176;-52
2022/05/04 02:28:04;;;;;;;12.57;8.57;;;;;;;;;;2082108;28;20203;-55
2022/05/04 02:29:04;;;;;;;12.20;8.13;;;;;;;;;;2082854;28;20176;-55
2022/05/04 02:30:04;;;;;;;14.67;9.00;;;;;;;;;;2082574;28;20211;-55
2022/05/04 02:31:05;;;;;;;13.27;8.13;;;;;;;;;;2074173;28;20175;-54
2022/05/04 02:32:05;;;;;;;15.30;8.95;;;;;;;;;;2074122;28;20267;-56
2022/05/04 02:33:05;;;;;;;13.77;8.63;;;;;;;;;;2082780;28;20557;-54
2022/05/04 02:34:06;;;;;;;18.27;9.00;;;;;;;;;;2083242;28;20192;-52
2022/05/04 02:37:57;;;;;;;15.45;8.07;;;;;;;;;;2084035;28;20297;-53
2022/05/04 02:38:57;;;;;;;19.07;8.80;;;;;;;;;;2083162;28;20175;-50
2022/05/04 02:39:57;;;;;;;15.68;9.38;;;;;;;;;;2082505;28;20631;-55
2022/05/04 02:40:57;;;;;;;21.93;8.90;;;;;;;;;;2083402;28;20168;-52
2022/05/04 02:41:58;;;;;;;14.80;9.30;;;;;;;;;;2083444;28;20171;-52
2022/05/04 02:42:58;;;;;;;17.50;9.23;;;;;;;;;;2073942;28;20865;-51
2022/05/04 02:44:00;;;;;;;20.40;9.77;;;;;;;;;;2073603;28;20636;-51
2022/05/04 02:45:01;;;;;;;17.65;9.05;;;;;;;;;;2082402;28;20177;-51
2022/05/04 02:46:17;;;;;;;14.55;9.20;;;;;;;;;;2082771;28;20183;-54
2022/05/04 02:47:17;;;;;;;15.63;8.47;;;;;;;;;;2082735;28;20644;-58
2022/05/04 02:48:18;;;;;;;14.07;9.43;;;;;;;;;;2082162;28;20173;-53
2022/05/04 02:49:18;;;;;;;15.27;9.63;;;;;;;;;;2082055;28;20675;-56
2022/05/04 02:50:18;;;;;;;15.67;8.97;;;;;;;;;;2081769;28;20188;-55
2022/05/04 02:51:18;;;;;;;15.63;9.23;;;;;;;;;;2082678;28;20180;-51
2022/05/04 02:52:19;;;;;;;17.80;9.43;;;;;;;;;;2082573;28;20191;-51
2022/05/04 02:53:19;;;;;;;17.87;9.30;;;;;;;;;;2082489;28;20222;-51
2022/05/04 02:54:19;;;;;;;16.57;9.47;;;;;;;;;;2082029;28;20188;-50
2022/05/04 02:55:19;;;;;;;14.97;9.67;;;;;;;;;;2081647;28;20179;-52
2022/05/04 02:56:20;;;;;;;20.20;9.53;;;;;;;;;;2082036;28;20204;-57
2022/05/04 02:57:20;;;;;;;15.73;10.00;;;;;;;;;;2081985;28;20191;-56
2022/05/04 02:58:20;;;;;;;14.40;9.63;;;;;;;;;;2073898;28;20177;-56
2022/05/04 02:59:21;;;;;;;18.13;9.53;;;;;;;;;;2082028;28;20180;-55
2022/05/04 03:00:21;;;;;;;17.07;9.53;;;;;;;;;;2081601;28;20183;-55
2022/05/04 03:02:40;;;;;;;14.80;9.50;;;;;;;;;;2074183;28;20165;-54
2022/05/04 03:03:40;;;;;;;17.83;8.43;;;;;;;;;;2073626;28;20197;-56
2022/05/04 03:04:41;;;;;;;13.73;8.90;;;;;;;;;;2073566;28;20259;-52
2022/05/04 03:05:41;;;;;;;18.80;9.50;;;;;;;;;;2082720;28;20195;-58
2022/05/04 03:06:41;;;;;;;13.07;8.40;;;;;;;;;;2082574;28;20179;-54
2022/05/04 03:07:42;;;;;;;13.10;9.17;;;;;;;;;;2082013;28;20168;-54
2022/05/04 03:08:42;;;;;;;13.30;8.70;;;;;;;;;;2081938;28;20259;-51
2022/05/04 03:09:42;;;;;;;15.97;8.93;;;;;;;;;;2082450;28;20172;-52
2022/05/04 03:12:02;;;;;;;13.80;9.27;;;;;;;;;;2082100;28;20219;-54
2022/05/04 03:13:02;;;;;;;12.50;9.27;;;;;;;;;;2086919;28;20259;-56
2022/05/04 03:14:02;;;;;;;12.90;9.23;;;;;;;;;;2086813;28;20199;-58
2022/05/04 03:15:03;;;;;;;19.60;10.00;;;;;;;;;;2078967;28;20192;-54
2022/05/04 03:16:03;;;;;;;16.17;9.30;;;;;;;;;;2079296;28;20669;-57
2022/05/04 03:17:04;;;;;;;16.27;9.20;;;;;;;;;;2078690;28;20207;-57
2022/05/04 03:18:04;;;;;;;14.53;9.13;;;;;;;;;;2079448;28;20165;-55
2022/05/04 03:19:04;;;;;;;12.87;9.27;;;;;;;;;;2076385;28;20721;-51
2022/05/04 03:20:06;;;;;;;14.13;9.27;;;;;;;;;;2080860;28;20172;-56
2022/05/04 03:21:06;;;;;;;19.03;9.80;;;;;;;;;;2086972;28;20180;-58
2022/05/04 03:22:07;;;;;;;14.20;9.50;;;;;;;;;;2086654;28;20231;-56
2022/05/04 03:23:07;;;;;;;20.87;10.03;;;;;;;;;;2086069;28;20268;-57
2022/05/04 03:24:07;;;;;;;20.57;9.50;;;;;;;;;;2087315;28;20195;-59
2022/05/04 03:25:08;;;;;;;17.53;10.00;;;;;;;;;;2087294;28;20273;-59
2022/05/04 03:26:08;;;;;;;19.47;10.37;;;;;;;;;;2087981;28;20231;-57
2022/05/04 03:27:09;;;;;;;13.07;9.70;;;;;;;;;;2087610;28;20233;-56
2022/05/04 03:28:09;;;;;;;13.37;8.77;;;;;;;;;;2087890;28;20274;-58
2022/05/04 03:29:09;;;;;;;13.60;10.23;;;;;;;;;;2078342;28;20176;-55
2022/05/04 03:30:10;;;;;;;14.17;9.63;;;;;;;;;;2085172;28;20602;-53
2022/05/04 03:31:10;;;;;;;13.67;10.13;;;;;;;;;;2081889;28;20659;-54
2022/05/04 03:32:11;;;;;;;13.53;10.00;;;;;;;;;;2073483;28;20196;-56
2022/05/04 03:33:11;;;;;;;18.20;10.77;;;;;;;;;;2073543;28;20272;-56
2022/05/04 03:34:11;;;;;;;17.50;9.80;;;;;;;;;;2081966;28;20255;-54
2022/05/04 03:35:11;;;;;;;20.00;10.73;;;;;;;;;;2082170;28;20175;-56
2022/05/04 03:36:12;;;;;;;18.80;9.80;;;;;;;;;;2082398;28;20599;-54
2022/05/04 03:37:12;;;;;;;18.00;9.80;;;;;;;;;;2082457;28;20585;-51
2022/05/04 03:38:12;;;;;;;13.67;9.67;;;;;;;;;;2082362;28;20188;-52
2022/05/04 03:39:12;;;;;;;14.30;9.53;;;;;;;;;;2082325;28;20183;-51
2022/05/04 03:40:13;;;;;;;18.10;9.67;;;;;;;;;;2073744;28;20229;-54
2022/05/04 03:41:13;;;;;;;15.50;9.97;;;;;;;;;;2074237;28;20295;-52
2022/05/04 03:42:14;;;;;;;15.90;10.03;;;;;;;;;;2081577;28;20560;-54
2022/05/04 03:43:14;;;;;;;14.67;9.70;;;;;;;;;;2081882;28;20226;-53
2022/05/04 03:44:16;;;;;;;20.63;10.60;;;;;;;;;;2075577;28;20176;-53
2022/05/04 03:45:16;;;;;;;16.17;10.07;;;;;;;;;;2082248;28;20184;-52
2022/05/04 03:46:17;;;;;;;18.17;10.57;;;;;;;;;;2082190;28;20172;-55
2022/05/04 03:47:18;;;;;;;17.30;10.20;;;;;;;;;;2082382;28;20176;-53
2022/05/04 03:48:18;;;;;;;19.63;10.03;;;;;;;;;;2082146;28;20232;-52
2022/05/04 03:49:19;;;;;;;16.10;10.17;;;;;;;;;;2082202;28;20176;-52
2022/05/04 03:50:19;;;;;;;16.97;11.50;;;;;;;;;;2081708;28;20226;-58
2022/05/04 03:51:20;;;;;;;19.83;10.67;;;;;;;;;;2082131;28;20601;-54
2022/05/04 03:52:21;;;;;;;14.40;11.30;;;;;;;;;;2081413;28;20182;-56
2022/05/04 03:53:21;;;;;;;22.97;10.50;;;;;;;;;;2081363;28;20184;-53
2022/05/04 03:54:21;;;;;;;19.57;10.77;;;;;;;;;;2081133;28;20184;-56
2022/05/04 03:55:21;;;;;;;15.90;9.77;;;;;;;;;;2081930;28;20806;-55
2022/05/04 03:56:22;;;;;;;16.37;10.53;;;;;;;;;;2081998;28;20237;-55
2022/05/04 03:57:22;;;;;;;17.20;10.83;;;;;;;;;;2082239;28;20169;-56
2022/05/04 03:58:22;;;;;;;17.37;10.83;;;;;;;;;;2081960;28;20176;-52
2022/05/04 03:59:22;;;;;;;18.43;10.83;;;;;;;;;;2082133;28;20203;-51
2022/05/04 04:00:22;;;;;;;20.10;10.70;;;;;;;;;;2081611;28;20222;-53
2022/05/04 04:01:23;;;;;;;16.23;10.13;;;;;;;;;;2082027;28;20228;-52
2022/05/04 04:02:23;;;;;;;18.17;9.80;;;;;;;;;;2081960;28;20230;-54
2022/05/04 04:03:23;;;;;;;15.87;10.53;;;;;;;;;;2082231;28;20176;-57
2022/05/04 04:04:24;;;;;;;17.47;10.67;;;;;;;;;;2080237;28;20160;-55
2022/05/04 04:05:24;;;;;;;25.03;11.83;;;;;;;;;;2080658;28;20176;-51
2022/05/04 04:06:24;;;;;;;20.10;10.40;;;;;;;;;;2081969;28;20252;-59
2022/05/04 04:07:24;;;;;;;16.50;10.20;;;;;;;;;;2083019;28;20160;-59
2022/05/04 04:08:25;;;;;;;16.13;9.77;;;;;;;;;;2083595;28;20259;-55
2022/05/04 04:09:25;;;;;;;14.70;9.30;;;;;;;;;;2083077;28;20172;-57
2022/05/04 04:10:25;;;;;;;15.47;9.73;;;;;;;;;;2082315;28;20238;-56
2022/05/04 04:11:26;;;;;;;20.43;9.83;;;;;;;;;;2082597;28;20184;-57
2022/05/04 04:12:27;;;;;;;17.90;10.77;;;;;;;;;;2083205;28;20521;-59
2022/05/04 04:13:27;;;;;;;14.50;10.43;;;;;;;;;;2082386;28;20254;-48
2022/05/04 04:14:28;;;;;;;18.23;9.87;;;;;;;;;;2082621;28;20168;-56
2022/05/04 04:15:28;;;;;;;20.03;10.80;;;;;;;;;;2081948;28;20175;-50
2022/05/04 04:16:29;;;;;;;16.37;10.47;;;;;;;;;;2081916;28;20511;-54
2022/05/04 04:17:29;;;;;;;22.70;10.80;;;;;;;;;;2081703;28;20552;-53
2022/05/04 04:18:30;;;;;;;23.57;11.03;;;;;;;;;;2081155;28;20690;-52
2022/05/04 04:19:30;;;;;;;25.33;10.57;;;;;;;;;;2080028;28;20184;-51
2022/05/04 04:21:53;;;;;;;19.27;10.50;;;;;;;;;;2081917;28;20223;-55
2022/05/04 04:22:53;;;;;;;21.13;9.87;;;;;;;;;;2081096;28;20771;-56
2022/05/04 04:23:53;;;;;;;19.10;11.07;;;;;;;;;;2081060;28;20188;-54
2022/05/04 04:24:54;;;;;;;19.50;10.50;;;;;;;;;;2081728;28;20203;-58
2022/05/04 04:25:54;;;;;;;23.10;10.90;;;;;;;;;;2082107;28;20203;-53
2022/05/04 04:26:54;;;;;;;18.70;10.20;;;;;;;;;;2082065;28;20160;-52
2022/05/04 04:27:55;;;;;;;19.93;10.37;;;;;;;;;;2081498;28;20223;-56
2022/05/04 04:28:55;;;;;;;20.53;11.47;;;;;;;;;;2081989;28;20180;-52
2022/05/04 04:29:55;;;;;;;16.47;11.57;;;;;;;;;;2081491;28;20187;-57
2022/05/04 04:30:56;;;;;;;19.53;10.93;;;;;;;;;;2081240;28;20168;-55
2022/05/04 04:31:56;;;;;;;23.80;11.33;;;;;;;;;;2080999;28;20218;-52
2022/05/04 04:32:56;;;;;;;16.30;9.93;;;;;;;;;;2081882;28;20648;-53
2022/05/04 04:33:57;;;;;;;15.60;10.43;;;;;;;;;;2081580;28;20220;-54
2022/05/04 04:34:57;;;;;;;19.33;9.93;;;;;;;;;;2081529;28;20180;-53
2022/05/04 04:35:58;;;;;;;16.53;10.40;;;;;;;;;;2080857;28;20260;-51
2022/05/04 04:36:58;;;;;;;16.63;10.57;;;;;;;;;;2081409;28;20176;-57
2022/05/04 04:37:58;;;;;;;15.60;10.30;;;;;;;;;;2081040;28;20176;-54
2022/05/04 04:38:58;;;;;;;19.43;11.13;;;;;;;;;;2081215;28;20169;-55
2022/05/04 04:39:59;;;;;;;11.20;9.53;;;;;;;;;;2081531;28;20662;-54
2022/05/04 04:40:59;;;;;;;21.83;10.90;;;;;;;;;;2081661;28;20652;-53
2022/05/04 04:41:59;;;;;;;18.97;10.40;;;;;;;;;;2081792;28;20527;-51
2022/05/04 04:43:02;;;;;;;13.90;10.03;;;;;;;;;;2081931;28;20176;-52
2022/05/04 04:44:02;;;;;;;15.67;9.87;;;;;;;;;;2081336;28;20558;-53
2022/05/04 04:45:03;;;;;;;15.73;10.40;;;;;;;;;;2081837;28;20180;-53
2022/05/04 04:46:03;;;;;;;17.57;9.87;;;;;;;;;;2081019;28;20179;-53
2022/05/04 04:47:04;;;;;;;18.53;9.57;;;;;;;;;;2081249;28;20178;-57
2022/05/04 04:48:04;;;;;;;14.10;9.63;;;;;;;;;;2081670;28;20164;-55
2022/05/04 04:49:05;;;;;;;19.57;9.60;;;;;;;;;;2081845;28;20180;-57
2022/05/04 04:50:05;;;;;;;15.03;9.73;;;;;;;;;;2081633;28;20186;-54
2022/05/04 04:51:06;;;;;;;12.67;9.03;;;;;;;;;;2081637;28;20223;-54
2022/05/04 04:52:06;;;;;;;23.73;10.63;;;;;;;;;;2081953;28;20684;-54
2022/05/04 04:53:06;;;;;;;18.27;10.13;;;;;;;;;;2081576;28;20164;-56
2022/05/04 04:54:07;;;;;;;14.33;9.77;;;;;;;;;;2091434;22;20278;-51
2022/05/04 04:55:07;;;;;;;14.47;10.23;;;;;;;;;;2079300;28;20235;-52
2022/05/04 04:56:07;;;;;;;19.97;10.97;;;;;;;;;;2073290;28;20200;-57
2022/05/04 04:57:08;;;;;;;15.17;10.10;;;;;;;;;;2077762;28;20195;-52
2022/05/04 04:58:08;;;;;;;15.93;8.77;;;;;;;;;;2083340;28;20176;-53
2022/05/04 04:59:08;;;;;;;16.63;8.73;;;;;;;;;;2081712;28;20214;-55
2022/05/04 05:00:09;;;;;;;18.43;10.30;;;;;;;;;;2083493;28;20254;-52
2022/05/04 05:01:09;;;;;;;15.30;9.17;;;;;;;;;;2082051;28;20541;-53
2022/05/04 05:02:10;;;;;;;17.80;9.40;;;;;;;;;;2082026;28;20629;-51
2022/05/04 05:03:10;;;;;;;15.37;8.73;;;;;;;;;;2077038;28;20176;-55
2022/05/04 05:04:11;;;;;;;17.13;9.90;;;;;;;;;;2076856;28;20201;-56
2022/05/04 05:05:11;;;;;;;12.20;8.70;;;;;;;;;;2074127;28;20168;-56
2022/05/04 05:06:12;;;;;;;14.93;9.93;;;;;;;;;;2073921;28;20176;-55
2022/05/04 05:07:12;;;;;;;13.97;9.37;;;;;;;;;;2072981;28;20187;-53
2022/05/04 05:08:13;;;;;;;14.00;8.87;;;;;;;;;;2073594;28;20173;-54
2022/05/04 05:09:13;;;;;;;17.87;10.03;;;;;;;;;;2069872;28;20263;-52
2022/05/04 05:10:13;;;;;;;18.07;9.43;;;;;;;;;;2067708;28;20182;-53
2022/05/04 05:11:13;;;;;;;16.43;9.57;;;;;;;;;;2072860;28;20176;-53
2022/05/04 05:12:13;;;;;;;17.00;9.43;;;;;;;;;;2073906;28;20522;-53
2022/05/04 05:13:14;;;;;;;12.43;8.80;;;;;;;;;;2073703;28;20235;-54
2022/05/04 05:16:53;;;;;;;16.05;9.25;;;;;;;;;;2073296;28;20181;-52
2022/05/04 05:17:54;;;;;;;10.83;7.97;;;;;;;;;;2069270;28;20636;-56
2022/05/04 05:18:54;;;;;;;14.30;8.27;;;;;;;;;;2065224;28;20258;-53
2022/05/04 05:19:54;;;;;;;20.70;8.93;;;;;;;;;;2057617;28;20221;-54
2022/05/04 05:20:54;;;;;;;15.98;8.15;;;;;;;;;;2066142;28;20212;-51
2022/05/04 05:21:55;;;;;;;15.07;9.87;;;;;;;;;;2072376;28;20247;-53
2022/05/04 05:22:55;;;;;;;11.47;8.33;;;;;;;;;;2073497;28;20195;-51
2022/05/04 05:23:55;;;;;;;10.55;8.82;;;;;;;;;;2072122;28;20630;-54
2022/05/04 05:24:55;;;;;;;10.05;8.73;;;;;;;;;;2073191;28;20165;-53
2022/05/04 05:25:56;;;;;;;12.90;8.55;;;;;;;;;;2073305;28;20185;-55
2022/05/04 05:26:56;;;;;;;13.55;8.50;;;;;;;;;;2073278;28;20173;-54
2022/05/04 05:27:56;;;;;;;14.35;8.35;;;;;;;;;;2074369;28;20544;-52
2022/05/04 05:28:57;;;;;;;20.55;8.88;;;;;;;;;;2075963;28;20554;-53
2022/05/04 05:29:57;;;;;;;25.33;9.20;;;;;;;;;;2073670;28;20630;-52
2022/05/04 05:30:57;;;;;;;13.43;8.43;;;;;;;;;;2073327;28;20189;-57
2022/05/04 05:31:57;;;;;;;12.45;8.93;;;;;;;;;;2073531;28;20199;-52
2022/05/04 05:32:57;;;;;;;14.27;8.30;;;;;;;;;;2073938;28;20204;-52
2022/05/04 05:33:58;;;;;;;15.43;8.80;;;;;;;;;;2073006;28;20267;-52
2022/05/04 05:34:58;;;;;;;15.63;8.57;;;;;;;;;;2072522;28;20181;-53
2022/05/04 05:35:58;;;;;;;13.20;8.60;;;;;;;;;;2064586;28;20240;-52
2022/05/04 05:36:59;;;;;;;11.75;7.20;;;;;;;;;;2072455;28;20169;-54
2022/05/04 05:37:59;;;;;;;26.90;10.18;;;;;;;;;;2073509;28;20264;-56
2022/05/04 05:39:00;;;;;;;23.60;9.35;;;;;;;;;;2073169;28;20169;-57
2022/05/04 05:40:00;;;;;;;17.13;9.18;;;;;;;;;;2073394;28;20173;-54
2022/05/04 05:41:01;;;;;;;14.07;8.98;;;;;;;;;;2073131;28;20679;-55
2022/05/04 05:42:01;;;;;;;20.02;9.25;;;;;;;;;;2071682;28;20175;-57
2022/05/04 05:43:02;;;;;;;26.85;9.35;;;;;;;;;;2063120;28;20740;-59
2022/05/04 05:44:02;;;;;;;21.02;8.65;;;;;;;;;;2066786;28;20191;-55
2022/05/04 05:45:02;;;;;;;14.52;9.48;;;;;;;;;;2073023;28;20180;-54
2022/05/04 05:46:03;;;;;;;11.53;7.67;;;;;;;;;;2073271;28;20185;-54
2022/05/04 05:47:04;;;;;;;16.25;8.77;;;;;;;;;;2073073;28;20193;-56
2022/05/04 05:48:05;;;;;;;17.30;8.65;;;;;;;;;;2073324;28;20177;-55
2022/05/04 05:49:05;;;;;;;19.42;9.05;;;;;;;;;;2073382;28;20707;-56
2022/05/04 05:50:06;;;;;;;14.68;7.97;;;;;;;;;;2072775;28;20673;-54
2022/05/04 05:51:06;;;;;;;12.75;7.47;;;;;;;;;;2072977;28;20235;-57
2022/05/04 05:52:08;;;;;;;15.10;7.78;;;;;;;;;;2064589;28;20221;-55
2022/05/04 05:53:08;;;;;;;16.60;7.90;;;;;;;;;;2064237;28;20613;-53
2022/05/04 05:54:08;;;;;;;16.08;10.02;;;;;;;;;;2063562;28;20205;-53
2022/05/04 05:55:09;;;;;;;10.93;8.38;;;;;;;;;;2055777;28;20185;-56
2022/05/04 05:56:09;;;;;;;25.13;7.95;;;;;;;;;;2069195;28;20176;-56
2022/05/04 05:57:10;;;;;;;16.65;7.40;;;;;;;;;;2067494;28;20181;-55
2022/05/04 05:58:10;;;;;;;17.25;8.05;;;;;;;;;;2061404;28;20177;-55
2022/05/04 05:59:12;;;;;;;12.15;7.07;;;;;;;;;;2067923;28;20166;-56
2022/05/04 06:00:13;;;;;;;12.23;7.00;;;;;;;;;;2073544;28;20181;-55
2022/05/04 06:01:13;;;;;;;17.98;7.90;;;;;;;;;;2072977;28;20169;-56
2022/05/04 06:02:13;;;;;;;23.23;8.13;;;;;;;;;;2072341;28;20182;-55
2022/05/04 06:03:14;;;;;;;9.35;6.88;;;;;;;;;;2065226;28;20169;-53
2022/05/04 06:04:15;;;;;;;10.80;6.40;;;;;;;;;;2065621;28;20182;-57
2022/05/04 06:05:15;;;;;;;9.82;6.82;;;;;;;;;;2073220;28;20518;-56
2022/05/04 06:06:15;;;;;;;19.08;7.57;;;;;;;;;;2073461;28;20713;-55
2022/05/04 06:07:15;;;;;;;10.88;6.97;;;;;;;;;;2073441;28;20668;-56
2022/05/04 06:08:15;;;;;;;14.98;7.03;;;;;;;;;;2073097;28;20161;-54
2022/05/04 06:09:16;;;;;;;12.40;6.90;;;;;;;;;;2072901;28;20633;-52